Time;durP1;ratioP1;P1;durP2;ratioP2;P2;SDS_P1;SDS_P2;PMS_P1;PMS_P2;Temp;Humidity;BMP_temperature;BMP_pressure;BME280_temperature;BME280_humidity;BME280_pressure;Samples;Min_cycle;Max_cycle;Signal;HPM_P1;HPM_P2
2021/01/11 00:01:27;;;;;;;21.85;11.60;;;;;;;4.96;100.00;96782.97;5025658;28;20043;-63
2021/01/11 00:03:52;;;;;;;21.52;10.82;;;;;;;5.34;100.00;96849.38;5026050;28;20041;-63
2021/01/11 00:06:18;;;;;;;26.83;11.93;;;;;;;5.46;100.00;96861.19;5007522;28;20034;-63
2021/01/11 00:08:45;;;;;;;24.88;11.82;;;;;;;5.39;100.00;96879.38;5026106;28;20025;-62
2021/01/11 00:11:12;;;;;;;32.78;17.55;;;;;;;5.57;100.00;96881.56;5006887;28;20455;-62
2021/01/11 00:13:37;;;;;;;44.78;24.50;;;;;;;5.59;100.00;96889.47;5025805;28;20152;-63
2021/01/11 00:16:02;;;;;;;49.05;25.88;;;;;;;5.19;100.00;96825.31;5024724;28;20116;-63
2021/01/11 00:18:28;;;;;;;57.33;29.25;;;;;;;5.33;100.00;96854.06;5025510;28;20033;-63
2021/01/11 00:20:53;;;;;;;62.50;28.42;;;;;;;5.28;100.00;96829.56;5025601;28;20093;-63
2021/01/11 00:23:19;;;;;;;75.35;32.55;;;;;;;5.64;100.00;96867.28;5025640;28;20029;-63
2021/01/11 00:25:44;;;;;;;75.10;32.05;;;;;;;5.45;100.00;96867.84;5025331;28;20039;-63
2021/01/11 00:28:10;;;;;;;78.10;29.92;;;;;;;5.48;100.00;96864.41;5025379;28;20110;-64
2021/01/11 00:30:35;;;;;;;37.10;15.63;;;;;;;5.39;100.00;96874.66;5025230;28;20045;-63
2021/01/11 00:33:00;;;;;;;57.65;22.48;;;;;;;3.82;100.00;96612.94;5025545;28;20033;-63
2021/01/11 00:35:26;;;;;;;44.60;19.75;;;;;;;5.40;100.00;96853.50;5006351;28;20893;-63
2021/01/11 00:37:51;;;;;;;43.13;19.98;;;;;;;4.75;100.00;96760.28;5025220;28;20076;-63
2021/01/11 00:40:17;;;;;;;44.28;18.60;;;;;;;5.03;100.00;96805.16;5006733;28;20392;-63
2021/01/11 00:42:42;;;;;;;28.88;12.93;;;;;;;5.50;100.00;96858.56;5025258;28;20091;-63
2021/01/11 00:45:08;;;;;;;101.60;35.13;;;;;;;5.33;100.00;96825.78;5024953;28;20083;-63
2021/01/11 00:47:41;;;;;;;48.38;17.88;;;;;;;5.46;100.00;96835.66;5025019;28;20041;-63
2021/01/11 00:50:08;;;;;;;17.98;8.07;;;;;;;5.37;100.00;96837.72;5006410;28;20057;-63
2021/01/11 00:52:35;;;;;;;118.65;53.28;;;;;;;4.90;100.00;96778.84;5023536;28;20058;-63
2021/01/11 00:55:00;;;;;;;52.28;21.55;;;;;;;3.03;100.00;96470.06;5025022;28;20180;-62
2021/01/11 00:57:26;;;;;;;12.18;5.68;;;;;;;5.22;100.00;96819.16;5024864;28;20093;-62
2021/01/11 00:59:51;;;;;;;22.25;8.43;;;;;;;5.13;100.00;96810.22;5024970;28;20041;-64
2021/01/11 01:02:17;;;;;;;12.48;5.80;;;;;;;5.12;100.00;96814.91;5022873;28;20047;-64
2021/01/11 01:04:42;;;;;;;13.40;5.10;;;;;;;4.93;100.00;96783.66;5019574;28;20041;-63
2021/01/11 01:07:07;;;;;;;9.13;4.28;;;;;;;5.04;100.00;96817.75;5024213;28;20103;-63
2021/01/11 01:09:33;;;;;;;8.45;4.25;;;;;;;5.08;100.00;96807.69;5024823;28;20040;-63
2021/01/11 01:11:59;;;;;;;7.57;4.43;;;;;;;4.98;100.00;96788.94;5024465;28;20644;-63
2021/01/11 01:14:25;;;;;;;7.18;3.03;;;;;;;4.65;100.00;96778.78;5024639;28;20041;-62
2021/01/11 01:16:51;;;;;;;4.95;2.88;;;;;;;2.72;100.00;96453.28;5022598;28;20087;-63
2021/01/11 01:19:17;;;;;;;8.70;3.72;;;;;;;4.68;100.00;96728.72;5024645;28;20069;-63
2021/01/11 01:21:42;;;;;;;4.55;2.75;;;;;;;4.72;100.00;96733.53;5024139;28;20503;-62
2021/01/11 01:24:08;;;;;;;5.35;2.92;;;;;;;4.80;100.00;96735.38;5022902;28;20049;-63
2021/01/11 01:26:33;;;;;;;6.53;2.88;;;;;;;2.67;100.00;96407.81;5024054;28;20025;-63
2021/01/11 01:28:58;;;;;;;9.50;5.00;;;;;;;5.16;100.00;96787.56;5024479;28;20034;-64
2021/01/11 01:31:24;;;;;;;7.55;3.40;;;;;;;5.11;100.00;96790.53;5024090;28;20035;-63
2021/01/11 01:33:49;;;;;;;6.35;3.03;;;;;;;5.11;100.00;96779.56;5022799;28;20021;-63
2021/01/11 01:36:18;;;;;;;8.50;3.78;;;;;;;5.02;100.00;96734.94;5023882;28;20036;-63
2021/01/11 01:38:44;;;;;;;9.93;4.35;;;;;;;5.26;100.00;96776.97;5024310;28;20029;-63
2021/01/11 01:41:09;;;;;;;8.63;4.22;;;;;;;4.38;100.00;96647.78;5022029;28;20488;-64
2021/01/11 01:43:34;;;;;;;9.73;4.97;;;;;;;5.25;100.00;96780.06;5023231;28;20336;-63
2021/01/11 01:46:01;;;;;;;9.55;3.88;;;;;;;5.04;100.00;96711.53;5022206;28;20095;-63
2021/01/11 01:48:26;;;;;;;20.58;4.28;;;;;;;5.20;100.00;96736.34;5027335;28;20040;-63
2021/01/11 01:50:52;;;;;;;12.50;5.63;;;;;;;5.21;100.00;96757.16;5027793;28;20513;-63
2021/01/11 01:53:18;;;;;;;9.60;4.63;;;;;;;4.87;100.00;96681.53;5026792;28;20044;-63
2021/01/11 01:55:43;;;;;;;9.90;4.80;;;;;;;3.87;100.00;96519.56;5026395;28;20104;-62
2021/01/11 01:58:09;;;;;;;8.27;3.50;;;;;;;5.20;100.00;96736.34;5026722;28;20560;-63
2021/01/11 02:00:35;;;;;;;6.93;3.00;;;;;;;5.34;100.00;96745.03;5028040;28;20049;-62
2021/01/11 02:03:01;;;;;;;7.47;3.25;;;;;;;5.42;100.00;96730.38;5028313;28;20661;-62
2021/01/11 02:05:26;;;;;;;13.02;6.30;;;;;;;4.96;100.00;96651.25;5026264;28;20084;-63
2021/01/11 02:07:58;;;;;;;20.13;9.95;;;;;;;5.24;100.00;96718.03;5026077;28;20033;-63
2021/01/11 02:10:47;;;;;;;21.33;11.20;;;;;;;4.83;100.00;96663.38;5025967;28;20050;-62
2021/01/11 02:14:06;;;;;;;20.27;11.30;;;;;;;5.21;100.00;96714.03;5010107;28;20025;-62
2021/01/11 02:17:02;;;;;;;13.95;7.15;;;;;;;5.36;100.00;96729.03;4985436;28;20760;-63
2021/01/11 02:19:55;;;;;;;9.20;4.20;;;;;;;5.33;100.00;96726.94;5028090;28;20138;-63
2021/01/11 02:22:33;;;;;;;12.88;5.97;;;;;;;5.17;100.00;96721.34;5027256;28;20121;-62
2021/01/11 02:25:27;;;;;;;11.80;6.25;;;;;;;5.25;100.00;96719.66;5027550;28;20048;-63
2021/01/11 02:27:59;;;;;;;15.63;6.45;;;;;;;5.28;100.00;96707.97;5001923;28;20064;-62
2021/01/11 02:30:31;;;;;;;16.70;8.27;;;;;;;5.25;100.00;96698.47;5027554;28;20097;-62
2021/01/11 02:33:16;;;;;;;24.20;12.75;;;;;;;5.25;100.00;96678.47;5026428;28;20037;-62
2021/01/11 02:35:47;;;;;;;15.18;7.25;;;;;;;5.30;100.00;96708.41;5027470;28;20037;-63
2021/01/11 02:38:15;;;;;;;16.27;6.72;;;;;;;5.35;100.00;96709.00;5028023;28;20427;-63
2021/01/11 02:40:40;;;;;;;9.18;4.50;;;;;;;5.25;100.00;96705.91;5026736;28;20048;-63
2021/01/11 02:43:06;;;;;;;11.52;5.93;;;;;;;5.28;100.00;96713.47;5009338;28;20042;-62
2021/01/11 02:45:32;;;;;;;11.80;4.18;;;;;;;5.30;100.00;96711.16;5008666;28;20428;-65
2021/01/11 02:48:31;;;;;;;8.20;3.78;;;;;;;5.31;100.00;96702.56;5009670;28;20029;-62
2021/01/11 02:51:21;;;;;;;11.52;3.15;;;;;;;5.43;100.00;96704.50;5026642;28;20053;-62
2021/01/11 02:53:58;;;;;;;13.10;4.82;;;;;;;5.10;100.00;96665.41;5027055;28;20040;-64
2021/01/11 02:56:52;;;;;;;9.45;4.07;;;;;;;5.42;100.00;96716.66;5026538;28;20562;-64
2021/01/11 02:59:39;;;;;;;6.95;3.70;;;;;;;5.51;100.00;96700.84;5025607;28;20053;-62
2021/01/11 03:02:09;;;;;;;13.32;5.25;;;;;;;4.89;100.00;96629.88;5027148;28;20068;-62
2021/01/11 03:04:36;;;;;;;19.25;7.30;;;;;;;4.91;100.00;96626.78;5027056;28;20159;-62
2021/01/11 03:07:04;;;;;;;18.20;9.32;;;;;;;4.86;100.00;96646.22;5041821;28;20534;-62
2021/01/11 03:09:30;;;;;;;20.65;9.55;;;;;;;5.52;100.00;96718.91;5026901;28;20044;-61
2021/01/11 03:11:57;;;;;;;18.73;9.82;;;;;;;5.57;100.00;96715.94;5026632;28;20075;-62
2021/01/11 03:14:24;;;;;;;23.63;13.70;;;;;;;4.26;100.00;96702.59;5025482;28;20562;-61
2021/01/11 03:16:50;;;;;;;24.90;13.52;;;;;;;5.61;100.00;96694.88;5025163;28;20124;-62
2021/01/11 03:19:15;;;;;;;25.70;14.18;;;;;;;5.75;100.00;96720.03;5027213;28;20125;-63
2021/01/11 03:21:40;;;;;;;22.98;12.43;;;;;;;5.10;100.00;96619.56;5026379;28;20709;-63
2021/01/11 03:24:08;;;;;;;17.40;10.00;;;;;;;5.15;100.00;96652.28;5026758;28;20397;-63
2021/01/11 03:26:33;;;;;;;10.13;7.05;;;;;;;5.82;100.00;96739.50;5012205;28;20471;-62
2021/01/11 03:28:59;;;;;;;8.55;5.63;;;;;;;5.81;100.00;96704.88;5026686;28;20078;-62
2021/01/11 03:31:24;;;;;;;10.27;5.78;;;;;;;5.84;100.00;96720.72;5026140;28;20025;-63
2021/01/11 03:33:50;;;;;;;15.90;6.95;;;;;;;5.69;100.00;96708.47;5024718;28;20029;-62
2021/01/11 03:36:17;;;;;;;10.32;4.65;;;;;;;5.86;100.00;96729.41;5041031;28;20064;-62
2021/01/11 03:38:42;;;;;;;11.60;5.68;;;;;;;5.84;100.00;96726.22;5026569;28;20540;-63
2021/01/11 03:41:11;;;;;;;12.88;7.53;;;;;;;4.38;100.00;96560.03;5025920;28;20557;-63
2021/01/11 03:43:38;;;;;;;13.75;8.55;;;;;;;5.32;100.00;96640.22;5026465;28;20029;-63
2021/01/11 03:46:04;;;;;;;18.52;9.30;;;;;;;5.63;100.00;96693.38;5026000;28;20503;-63
2021/01/11 03:48:29;;;;;;;21.15;11.27;;;;;;;5.59;100.00;96713.66;5025958;28;20033;-64
2021/01/11 03:50:55;;;;;;;37.08;17.35;;;;;;;5.76;100.00;96714.19;5025367;28;20052;-63
2021/01/11 03:53:20;;;;;;;52.22;21.00;;;;;;;5.08;100.00;96596.34;5026320;28;20037;-62
2021/01/11 03:55:46;;;;;;;88.13;34.22;;;;;;;5.65;100.00;96704.00;5024315;28;20492;-62
2021/01/11 03:58:11;;;;;;;24.17;13.10;;;;;;;5.58;100.00;96679.09;5025799;28;20479;-63
2021/01/11 04:00:37;;;;;;;23.67;12.07;;;;;;;4.91;100.00;96604.81;5025742;28;20033;-63
2021/01/11 04:03:03;;;;;;;24.98;15.23;;;;;;;5.12;100.00;96660.41;5024802;28;20057;-62
2021/01/11 04:05:29;;;;;;;25.08;13.73;;;;;;;5.55;100.00;96712.72;5025486;28;20042;-63
2021/01/11 04:07:54;;;;;;;23.90;13.75;;;;;;;5.61;100.00;96736.09;5007786;28;20519;-62
2021/01/11 04:10:20;;;;;;;31.90;16.98;;;;;;;4.84;100.00;96649.31;5006645;28;20416;-65
2021/01/11 04:12:45;;;;;;;25.00;12.35;;;;;;;4.97;100.00;96647.34;5025997;28;20080;-63
2021/01/11 04:15:11;;;;;;;87.80;43.17;;;;;;;4.17;100.00;96518.22;5025449;28;20033;-63
2021/01/11 04:17:37;;;;;;;21.35;14.00;;;;;;;4.28;100.00;96530.34;5007735;28;20120;-63
2021/01/11 04:20:05;;;;;;;22.83;12.52;;;;;;;5.48;100.00;96729.00;5007499;28;20526;-62
2021/01/11 04:22:30;;;;;;;22.58;12.82;;;;;;;5.58;100.00;96720.28;5025311;28;20511;-62
2021/01/11 04:24:55;;;;;;;17.70;10.18;;;;;;;5.60;100.00;96717.97;5025903;28;20041;-62
2021/01/11 04:27:21;;;;;;;22.15;13.55;;;;;;;5.60;100.00;96721.53;5025172;28;20036;-63
2021/01/11 04:29:47;;;;;;;24.48;15.68;;;;;;;4.98;100.00;96605.06;5007535;28;20077;-62
2021/01/11 04:32:12;;;;;;;19.77;12.18;;;;;;;5.61;100.00;96734.13;5025224;28;20032;-62
2021/01/11 04:34:37;;;;;;;31.02;18.25;;;;;;;5.65;100.00;96704.81;5007904;28;20091;-63
2021/01/11 04:37:03;;;;;;;33.63;18.88;;;;;;;5.03;100.00;96610.28;5007152;28;20025;-62
2021/01/11 04:39:28;;;;;;;31.58;17.23;;;;;;;5.55;100.00;96712.72;5025431;28;20037;-62
2021/01/11 04:41:54;;;;;;;39.05;20.30;;;;;;;5.34;100.00;96701.09;5025076;28;20037;-63
2021/01/11 04:44:21;;;;;;;25.65;13.95;;;;;;;5.61;100.00;96683.88;5025397;28;20037;-62
2021/01/11 04:46:48;;;;;;;60.60;35.17;;;;;;;5.68;100.00;96722.53;5006667;28;20064;-63
2021/01/11 04:49:15;;;;;;;28.95;15.75;;;;;;;5.64;100.00;96710.66;5024782;28;20058;-62
2021/01/11 04:51:40;;;;;;;40.25;20.50;;;;;;;5.71;100.00;96739.16;5024528;28;20033;-63
2021/01/11 04:54:08;;;;;;;42.50;20.52;;;;;;;5.75;100.00;96722.78;5025164;28;20052;-62
2021/01/11 04:56:40;;;;;;;22.58;12.63;;;;;;;5.78;100.00;96722.88;5024746;28;20037;-64
2021/01/11 04:59:08;;;;;;;26.48;15.73;;;;;;;5.75;100.00;96711.78;5024988;28;20175;-62
2021/01/11 05:01:34;;;;;;;37.10;20.92;;;;;;;5.70;100.00;96703.78;5011303;28;20068;-62
2021/01/11 05:04:01;;;;;;;22.77;13.00;;;;;;;5.81;100.00;96699.41;5012938;28;20065;-62
2021/01/11 05:06:27;;;;;;;64.70;31.05;;;;;;;5.40;100.00;96640.09;5022444;28;20401;-62
2021/01/11 05:09:03;;;;;;;44.88;22.20;;;;;;;5.82;100.00;96739.50;5024862;28;20037;-62
2021/01/11 05:11:28;;;;;;;41.78;22.08;;;;;;;5.24;100.00;96657.63;5022834;28;20129;-61
2021/01/11 05:13:54;;;;;;;54.95;24.98;;;;;;;5.93;100.00;96740.59;5024346;28;20029;-62
2021/01/11 05:16:22;;;;;;;79.97;41.63;;;;;;;5.98;100.00;96743.13;5024223;28;20061;-62
2021/01/11 05:18:48;;;;;;;96.28;48.70;;;;;;;5.93;100.00;96713.13;5039466;28;20496;-63
2021/01/11 05:21:46;;;;;;;81.18;41.67;;;;;;;6.10;100.00;96756.84;5023899;28;20033;-62
2021/01/11 05:24:40;;;;;;;33.58;19.02;;;;;;;5.97;100.00;96771.78;5024639;28;20087;-62
2021/01/11 05:27:10;;;;;;;24.08;12.38;;;;;;;6.07;100.00;96761.06;5023927;28;20048;-62
2021/01/11 05:29:38;;;;;;;19.17;10.63;;;;;;;6.04;100.00;96769.22;5039487;28;20793;-62
2021/01/11 05:32:08;;;;;;;23.98;12.68;;;;;;;6.14;100.00;96776.97;5022774;28;20107;-62
2021/01/11 05:34:50;;;;;;;33.50;18.83;;;;;;;6.09;100.00;96778.03;5024664;28;20057;-62
2021/01/11 05:37:42;;;;;;;49.88;25.23;;;;;;;6.20;100.00;96799.56;5022566;28;20040;-61
2021/01/11 05:40:16;;;;;;;74.55;36.95;;;;;;;6.08;100.00;96814.13;5022140;28;20033;-61
2021/01/11 05:42:48;;;;;;;53.45;28.60;;;;;;;6.06;100.00;96833.72;5004847;28;20455;-61
2021/01/11 05:45:33;;;;;;;43.60;22.15;;;;;;;6.05;100.00;96845.06;4986696;28;20038;-62
2021/01/11 05:48:09;;;;;;;29.55;14.55;;;;;;;5.99;100.00;96849.19;5004589;28;20466;-62
2021/01/11 05:50:44;;;;;;;21.50;12.40;;;;;;;5.28;100.00;96757.41;5003793;28;20061;-63
2021/01/11 05:53:19;;;;;;;23.25;11.73;;;;;;;5.89;100.00;96868.91;5005181;28;20437;-62
2021/01/11 05:55:46;;;;;;;15.57;9.48;;;;;;;5.82;100.00;96904.38;5004543;28;20394;-62
2021/01/11 05:58:12;;;;;;;16.20;7.35;;;;;;;5.75;100.00;96847.22;5004942;28;20034;-63
2021/01/11 06:00:39;;;;;;;20.55;9.75;;;;;;;5.76;100.00;96796.63;4986134;28;20050;-63
2021/01/11 06:03:07;;;;;;;19.95;11.40;;;;;;;5.83;100.00;96796.06;5004877;28;20461;-64
2021/01/11 06:05:34;;;;;;;29.67;13.13;;;;;;;5.60;100.00;96756.44;5021611;28;20076;-63
2021/01/11 06:08:01;;;;;;;35.20;20.58;;;;;;;5.04;100.00;96760.13;5032214;28;20033;-62
2021/01/11 06:10:27;;;;;;;36.88;22.00;;;;;;;5.80;100.00;96783.00;5002429;28;20041;-62
2021/01/11 06:12:53;;;;;;;30.95;18.02;;;;;;;5.06;100.00;96650.81;5006176;28;20511;-62
2021/01/11 06:15:20;;;;;;;32.00;18.88;;;;;;;6.02;100.00;96716.56;5022959;28;20067;-63
2021/01/11 06:17:51;;;;;;;34.03;17.38;;;;;;;5.16;100.00;96560.53;5023292;28;20080;-62
2021/01/11 06:20:21;;;;;;;17.73;10.35;;;;;;;5.89;100.00;96723.22;5023488;28;20049;-64
2021/01/11 06:22:47;;;;;;;18.10;10.73;;;;;;;6.00;100.00;96746.31;5023345;28;20034;-66
2021/01/11 06:25:24;;;;;;;13.70;8.15;;;;;;;6.04;100.00;96719.72;5023248;28;20087;-62
2021/01/11 06:28:04;;;;;;;17.13;10.82;;;;;;;5.73;100.00;96708.56;5023252;28;20108;-63
2021/01/11 06:30:36;;;;;;;16.77;10.68;;;;;;;5.89;100.00;96747.97;5023709;28;20037;-68
2021/01/11 06:33:14;;;;;;;22.33;12.10;;;;;;;5.85;100.00;96760.78;5023929;28;20040;-63
2021/01/11 06:35:44;;;;;;;67.50;38.40;;;;;;;5.92;100.00;96748.06;5009296;28;20037;-64
2021/01/11 06:38:25;;;;;;;49.63;28.77;;;;;;;5.99;100.00;96766.72;5009732;28;20571;-64
2021/01/11 06:40:52;;;;;;;20.52;13.38;;;;;;;6.16;100.00;96782.94;5026977;28;20451;-64
2021/01/11 06:56:04;;;;;;;15.98;7.53;;;;;;;5.48;100.00;96668.56;5017242;28;20064;-62
2021/01/11 06:58:33;;;;;;;13.20;7.40;;;;;;;5.57;100.00;96644.50;5018992;28;20688;-64
2021/01/11 07:01:11;;;;;;;14.82;7.75;;;;;;;5.86;100.00;96719.22;5019303;28;20101;-62
2021/01/11 07:03:50;;;;;;;21.85;11.35;;;;;;;3.51;100.00;96349.75;5025992;28;20041;-63
2021/01/11 07:06:38;;;;;;;28.05;16.88;;;;;;;6.39;100.00;96808.75;5026536;28;20044;-63
2021/01/11 07:09:17;;;;;;;24.90;12.95;;;;;;;5.72;100.00;96693.25;5006277;28;20516;-63
2021/01/11 07:11:45;;;;;;;27.27;15.05;;;;;;;6.34;100.00;96778.75;5026589;28;20136;-63
2021/01/11 07:14:12;;;;;;;1096.22;102.05;;;;;;;5.09;100.00;96576.00;5026993;28;20312;-64
2021/01/11 07:16:50;;;;;;;16.23;9.05;;;;;;;6.02;100.00;96725.56;5019250;28;20045;-67
2021/01/11 07:19:41;;;;;;;17.02;10.02;;;;;;;6.12;100.00;96716.03;5023820;28;20420;-64
2021/01/11 07:22:09;;;;;;;20.98;11.73;;;;;;;6.45;100.00;96768.84;5020690;28;20148;-65
2021/01/11 07:24:39;;;;;;;16.55;8.20;;;;;;;6.23;100.00;96743.84;5025564;28;20568;-63
2021/01/11 07:27:04;;;;;;;16.75;9.32;;;;;;;6.02;100.00;96757.78;5016227;28;20537;-64
2021/01/11 07:29:29;;;;;;;19.98;9.57;;;;;;;3.79;100.00;96389.03;5026473;28;20138;-63
2021/01/11 07:31:55;;;;;;;17.90;8.98;;;;;;;5.81;100.00;96699.41;5025742;28;21002;-65
2021/01/11 07:34:24;;;;;;;15.50;8.23;;;;;;;5.53;100.00;96646.38;5026569;28;20095;-63
2021/01/11 07:36:51;;;;;;;16.00;9.30;;;;;;;5.74;100.00;96682.69;5025529;28;20160;-63
2021/01/11 07:39:22;;;;;;;35.63;21.83;;;;;;;5.43;100.00;96605.66;5020870;28;20112;-63
2021/01/11 07:41:57;;;;;;;84.15;57.90;;;;;;;5.92;100.00;96711.53;4993960;28;20096;-63
2021/01/11 07:44:31;;;;;;;39.03;24.02;;;;;;;6.61;100.00;96761.44;5026251;28;20033;-64
2021/01/11 07:47:04;;;;;;;48.75;29.17;;;;;;;4.02;100.00;96349.03;5026174;28;20045;-63
2021/01/11 07:49:32;;;;;;;49.47;28.45;;;;;;;6.86;100.00;96767.63;5025644;28;20041;-63
2021/01/11 07:52:25;;;;;;;63.97;33.40;;;;;;;6.14;100.00;96653.25;5005876;28;20026;-65
2021/01/11 07:55:04;;;;;;;80.30;44.08;;;;;;;6.95;100.00;96782.81;5022993;28;20053;-65
2021/01/11 07:57:31;;;;;;;78.55;38.38;;;;;;;6.36;100.00;96693.94;5025338;28;20027;-65
2021/01/11 08:00:10;;;;;;;70.45;39.03;;;;;;;7.02;100.00;96771.16;5025927;28;20049;-62
2021/01/11 08:02:35;;;;;;;55.33;28.30;;;;;;;6.62;100.00;96707.22;5007760;28;20118;-62
2021/01/11 08:05:01;;;;;;;56.53;29.23;;;;;;;7.09;100.00;96805.22;5007927;28;20154;-62
2021/01/11 08:07:32;;;;;;;48.83;27.42;;;;;;;7.15;100.00;96828.59;5003954;28;20034;-63
2021/01/11 08:09:59;;;;;;;41.40;21.25;;;;;;;7.24;100.00;96845.75;4988505;28;20037;-63
2021/01/11 08:12:26;;;;;;;73.72;36.20;;;;;;;7.27;100.00;96860.78;4987258;28;20045;-63
2021/01/11 08:15:00;;;;;;;62.47;30.35;;;;;;;7.37;100.00;96844.53;5006051;28;20030;-63
2021/01/11 08:17:26;;;;;;;97.90;45.17;;;;;;;7.21;100.00;96832.69;5005647;28;20554;-64
2021/01/11 08:19:53;;;;;;;81.82;37.20;;;;;;;7.33;100.00;96853.84;5006013;28;20044;-61
2021/01/11 08:22:20;;;;;;;53.65;27.42;;;;;;;7.07;100.00;96829.56;5023529;28;20037;-63
2021/01/11 08:24:53;;;;;;;27.70;17.15;;;;;;;7.26;100.00;96865.47;5025090;28;20132;-63
2021/01/11 08:27:25;;;;;;;40.20;23.95;;;;;;;7.31;100.00;96867.97;5005630;28;20041;-64
2021/01/11 08:29:51;;;;;;;26.23;17.63;;;;;;;6.96;100.00;96811.13;5016045;28;20069;-68
2021/01/11 08:32:18;;;;;;;19.90;12.68;;;;;;;6.72;100.00;96768.03;5024464;28;20593;-64
2021/01/11 08:34:45;;;;;;;31.10;17.73;;;;;;;7.33;100.00;96867.63;5024846;28;20036;-64
2021/01/11 08:37:28;;;;;;;40.08;22.85;;;;;;;7.30;100.00;96871.88;5006177;28;20120;-63
2021/01/11 08:39:58;;;;;;;;;;;;;;;7.19;100.00;96859.78;5007252;28;20041;-64
2021/01/11 08:42:28;;;;;;;14.55;8.73;;;;;;;7.08;100.00;96874.44;5006468;28;19964;-66
2021/01/11 08:44:54;;;;;;;9.45;5.28;;;;;;;6.84;100.00;96885.53;5024688;28;20061;-66
2021/01/11 08:47:27;;;;;;;9.77;5.45;;;;;;;6.64;100.00;96826.78;5024536;28;20393;-64
2021/01/11 08:50:04;;;;;;;13.80;7.07;;;;;;;6.21;100.00;96771.72;5024194;28;20035;-63
2021/01/11 08:52:32;;;;;;;30.15;17.92;;;;;;;7.04;100.00;96868.00;5024388;28;20041;-65
2021/01/11 08:55:12;;;;;;;23.70;13.07;;;;;;;7.03;100.00;96811.34;5023866;28;20053;-65
2021/01/11 08:57:38;;;;;;;23.27;13.38;;;;;;;6.12;100.00;96680.28;5023171;28;20045;-65
2021/01/11 09:00:10;;;;;;;17.20;9.38;;;;;;;6.82;100.00;96761.22;5005218;28;20049;-62
2021/01/11 09:02:44;;;;;;;15.38;8.68;;;;;;;7.35;100.00;96802.75;5023328;28;20033;-64
2021/01/11 09:05:26;;;;;;;24.17;14.05;;;;;;;7.37;100.00;96805.94;5024100;28;20037;-63
2021/01/11 09:07:55;;;;;;;36.42;19.08;;;;;;;7.81;100.00;96836.94;5024528;28;20512;-62
2021/01/11 09:10:30;;;;;;;46.70;24.42;;;;;;;7.57;100.00;96755.25;5017800;28;20046;-64
2021/01/11 09:12:56;;;;;;;25.92;13.85;;;;;;;8.36;100.00;96891.09;5004674;28;20072;-63
2021/01/11 09:15:26;;;;;;;32.58;18.83;;;;;;;5.54;100.00;96419.97;5022315;28;20860;-65
2021/01/11 09:18:05;;;;;;;19.15;11.07;;;;;;;8.02;100.00;96737.38;5024668;28;20029;-62
2021/01/11 09:20:35;;;;;;;32.08;19.08;;;;;;;8.02;100.00;96727.13;5023782;28;20046;-62
2021/01/11 09:23:00;;;;;;;47.70;26.85;;;;;;;7.98;100.00;96725.47;5023631;28;20121;-64
2021/01/11 09:25:28;;;;;;;26.58;16.52;;;;;;;8.87;99.86;96837.38;5024015;28;20101;-61
2021/01/11 09:27:54;;;;;;;30.35;17.55;;;;;;;8.98;98.86;96874.28;5024428;28;20496;-63
2021/01/11 09:30:19;;;;;;;28.95;17.30;;;;;;;8.72;97.10;96813.41;5005137;28;20030;-61
2021/01/11 09:32:45;;;;;;;23.35;14.13;;;;;;;9.18;96.03;96857.31;5023211;28;20489;-62
2021/01/11 09:35:13;;;;;;;27.65;15.00;;;;;;;8.95;97.80;96817.00;5022827;28;20071;-63
2021/01/11 09:37:38;;;;;;;16.38;9.50;;;;;;;8.71;97.11;96773.16;5023325;28;20033;-62
2021/01/11 09:40:05;;;;;;;19.27;9.77;;;;;;;9.65;96.98;96848.72;5023330;28;20037;-64
2021/01/11 09:42:30;;;;;;;17.88;11.02;;;;;;;9.73;95.61;96795.13;5005490;28;20029;-64
2021/01/11 09:44:56;;;;;;;25.50;16.48;;;;;;;9.87;92.50;96828.53;5013205;28;20417;-63
2021/01/11 09:47:22;;;;;;;26.35;16.00;;;;;;;9.68;90.89;96825.84;5002413;28;20064;-61
2021/01/11 09:49:48;;;;;;;19.77;12.25;;;;;;;9.55;92.04;96807.06;5004813;28;20113;-62
2021/01/11 09:52:13;;;;;;;15.52;9.57;;;;;;;7.86;91.90;96618.03;5004169;28;20566;-62
2021/01/11 09:54:39;;;;;;;15.90;10.38;;;;;;;8.99;91.60;96737.78;4994128;28;20036;-61
2021/01/11 09:57:05;;;;;;;41.00;22.83;;;;;;;9.02;90.84;96714.94;5023388;28;20041;-64
2021/01/11 09:59:30;;;;;;;22.80;12.60;;;;;;;9.74;91.99;96780.13;5023528;28;20046;-66
2021/01/11 10:01:56;;;;;;;54.28;31.20;;;;;;;9.51;91.01;96795.94;5023078;28;20445;-63
2021/01/11 10:04:21;;;;;;;21.00;12.82;;;;;;;8.78;89.35;96671.09;5023201;28;20523;-64
2021/01/11 10:06:52;;;;;;;18.02;9.77;;;;;;;8.20;89.00;96581.31;5005572;28;20087;-63
2021/01/11 10:09:22;;;;;;;26.27;13.13;;;;;;;8.32;92.49;96652.88;5025491;28;20535;-61
2021/01/11 10:11:58;;;;;;;24.40;13.82;;;;;;;9.54;93.95;96819.28;5026608;28;20037;-62
2021/01/11 10:14:25;;;;;;;19.90;11.50;;;;;;;8.78;91.98;96715.28;5016121;28;20172;-63
2021/01/11 10:16:50;;;;;;;19.75;9.55;;;;;;;9.09;92.07;96853.19;5007764;28;20026;-63
2021/01/11 10:19:21;;;;;;;21.40;12.63;;;;;;;6.24;91.57;96328.28;5015382;28;20091;-63
2021/01/11 10:21:47;;;;;;;21.30;11.63;;;;;;;8.60;92.63;96697.63;5027037;28;20041;-63
2021/01/11 10:24:15;;;;;;;22.02;11.85;;;;;;;8.99;92.90;96781.97;5009923;28;20038;-63
2021/01/11 10:26:42;;;;;;;39.15;26.88;;;;;;;9.08;94.02;96843.31;5027019;28;20072;-65
2021/01/11 10:29:08;;;;;;;42.67;20.33;;;;;;;8.99;94.87;96824.19;5009517;28;20042;-64
2021/01/11 10:31:34;;;;;;;32.15;17.73;;;;;;;8.45;96.40;96739.88;5008892;28;20033;-64
2021/01/11 10:33:59;;;;;;;33.88;17.23;;;;;;;8.56;99.68;96796.91;5009385;28;20488;-64
2021/01/11 10:36:25;;;;;;;33.72;19.10;;;;;;;8.68;99.18;96788.47;5026581;28;20025;-66
2021/01/11 10:38:50;;;;;;;32.20;18.98;;;;;;;8.76;98.83;96792.16;5027113;28;20034;-64
2021/01/11 10:41:18;;;;;;;32.42;18.08;;;;;;;8.63;97.42;96785.22;5008615;28;20501;-63
2021/01/11 10:43:45;;;;;;;24.50;14.32;;;;;;;8.80;97.58;96801.34;5019765;28;20026;-64
2021/01/11 10:46:15;;;;;;;29.88;17.42;;;;;;;7.88;98.19;96651.56;5023952;28;20037;-65
2021/01/11 10:48:43;;;;;;;20.17;11.27;;;;;;;8.84;98.09;96791.16;5027497;28;20044;-66
2021/01/11 10:51:11;;;;;;;21.65;11.80;;;;;;;8.27;99.14;96700.09;5008732;28;20575;-67
2021/01/11 10:53:46;;;;;;;34.67;21.17;;;;;;;7.85;99.38;96619.22;5009432;28;20082;-65
2021/01/11 10:56:11;;;;;;;29.15;17.08;;;;;;;7.30;99.69;96530.28;5026227;28;20049;-63
2021/01/11 10:58:38;;;;;;;31.13;17.80;;;;;;;9.07;99.69;96772.66;5026545;28;20091;-63
2021/01/11 11:01:14;;;;;;;46.38;25.52;;;;;;;8.83;99.28;96720.50;5026286;28;20046;-63
2021/01/11 11:03:41;;;;;;;46.22;25.60;;;;;;;8.78;99.17;96737.38;5026981;28;20103;-63
2021/01/11 11:06:07;;;;;;;39.45;20.90;;;;;;;9.04;98.53;96762.34;5026785;28;20053;-64
2021/01/11 11:08:33;;;;;;;52.67;29.98;;;;;;;7.93;96.76;96609.94;5026988;28;20025;-65
2021/01/11 11:10:58;;;;;;;52.05;30.50;;;;;;;8.98;97.75;96767.34;5026117;28;20401;-63
2021/01/11 11:13:24;;;;;;;51.75;31.00;;;;;;;8.51;98.04;96705.31;5026472;28;20029;-63
2021/01/11 11:15:49;;;;;;;59.67;37.00;;;;;;;8.99;98.75;96765.41;5026571;28;20075;-62
2021/01/11 11:18:16;;;;;;;52.67;32.85;;;;;;;8.66;98.40;96721.00;5026954;28;20379;-62
2021/01/11 11:20:44;;;;;;;60.88;36.10;;;;;;;8.74;99.86;96784.25;5025940;28;20045;-62
2021/01/11 11:23:10;;;;;;;89.85;52.20;;;;;;;8.29;100.00;96730.88;5026808;28;20029;-62
2021/01/11 11:25:35;;;;;;;73.88;47.38;;;;;;;8.73;100.00;96773.56;5026216;28;20476;-62
2021/01/11 11:28:02;;;;;;;68.35;41.00;;;;;;;8.74;100.00;96775.19;5026786;28;20546;-63
2021/01/11 11:30:27;;;;;;;49.10;29.80;;;;;;;8.65;100.00;96761.59;5025939;28;20564;-63
2021/01/11 11:32:53;;;;;;;49.83;31.45;;;;;;;8.85;100.00;96781.72;5026315;28;20080;-63
2021/01/11 11:35:20;;;;;;;44.65;26.65;;;;;;;7.89;100.00;96595.28;5025986;28;20042;-62
2021/01/11 11:37:47;;;;;;;39.00;23.63;;;;;;;8.83;100.00;96779.31;5026123;28;20051;-63
2021/01/11 11:40:13;;;;;;;30.17;19.63;;;;;;;8.44;100.00;96716.22;5025693;28;20033;-61
2021/01/11 11:42:40;;;;;;;33.85;21.33;;;;;;;8.91;100.00;96769.19;5026513;28;20087;-62
2021/01/11 11:45:08;;;;;;;33.38;19.77;;;;;;;8.18;100.00;96653.41;5025305;28;20041;-63